sensor_id;sensor_type;location;lat;lon;timestamp;P1;durP1;ratioP1;P2;durP2;ratioP2
73747;SDS011;62056;52.130;5.428;2023-02-12T00:01:43;11.90;;;8.13;;
73747;SDS011;62056;52.130;5.428;2023-02-12T00:04:10;10.30;;;6.80;;
73747;SDS011;62056;52.130;5.428;2023-02-12T00:06:37;10.32;;;6.88;;
73747;SDS011;62056;52.130;5.428;2023-02-12T00:09:04;11.35;;;7.18;;
73747;SDS011;62056;52.130;5.428;2023-02-12T00:11:31;8.02;;;6.70;;
73747;SDS011;62056;52.130;5.428;2023-02-12T00:13:58;9.37;;;7.27;;
73747;SDS011;62056;52.130;5.428;2023-02-12T00:16:27;13.93;;;7.75;;
73747;SDS011;62056;52.130;5.428;2023-02-12T00:18:55;11.35;;;7.93;;
73747;SDS011;62056;52.130;5.428;2023-02-12T00:21:22;13.98;;;7.43;;
73747;SDS011;62056;52.130;5.428;2023-02-12T00:23:49;12.00;;;7.55;;
73747;SDS011;62056;52.130;5.428;2023-02-12T00:26:17;13.03;;;7.13;;
73747;SDS011;62056;52.130;5.428;2023-02-12T00:28:46;13.73;;;7.97;;
73747;SDS011;62056;52.130;5.428;2023-02-12T00:31:23;12.85;;;8.10;;
73747;SDS011;62056;52.130;5.428;2023-02-12T00:33:52;12.52;;;7.88;;
73747;SDS011;62056;52.130;5.428;2023-02-12T00:36:20;12.55;;;7.65;;
73747;SDS011;62056;52.130;5.428;2023-02-12T00:38:49;10.47;;;7.67;;
73747;SDS011;62056;52.130;5.428;2023-02-12T00:41:20;15.52;;;7.40;;
73747;SDS011;62056;52.130;5.428;2023-02-12T00:43:48;15.38;;;9.00;;
73747;SDS011;62056;52.130;5.428;2023-02-12T00:46:16;13.40;;;8.43;;
73747;SDS011;62056;52.130;5.428;2023-02-12T00:48:43;13.38;;;7.97;;
73747;SDS011;62056;52.130;5.428;2023-02-12T00:51:09;10.83;;;8.03;;
73747;SDS011;62056;52.130;5.428;2023-02-12T00:53:36;15.63;;;7.85;;
73747;SDS011;62056;52.130;5.428;2023-02-12T00:56:03;12.63;;;8.18;;
73747;SDS011;62056;52.130;5.428;2023-02-12T00:58:30;12.50;;;9.15;;
73747;SDS011;62056;52.130;5.428;2023-02-12T01:00:57;13.18;;;8.88;;
73747;SDS011;62056;52.130;5.428;2023-02-12T01:03:24;11.50;;;8.50;;
73747;SDS011;62056;52.130;5.428;2023-02-12T01:05:51;12.93;;;7.88;;
73747;SDS011;62056;52.130;5.428;2023-02-12T01:08:18;13.68;;;8.70;;
73747;SDS011;62056;52.130;5.428;2023-02-12T01:10:52;19.23;;;9.82;;
73747;SDS011;62056;52.130;5.428;2023-02-12T01:13:21;15.23;;;9.60;;
73747;SDS011;62056;52.130;5.428;2023-02-12T01:15:48;20.27;;;10.60;;
73747;SDS011;62056;52.130;5.428;2023-02-12T01:18:26;13.30;;;9.07;;
73747;SDS011;62056;52.130;5.428;2023-02-12T01:20:52;14.18;;;10.48;;
73747;SDS011;62056;52.130;5.428;2023-02-12T01:23:19;13.18;;;8.98;;
73747;SDS011;62056;52.130;5.428;2023-02-12T01:25:46;12.88;;;8.95;;
73747;SDS011;62056;52.130;5.428;2023-02-12T01:28:15;15.73;;;8.53;;
73747;SDS011;62056;52.130;5.428;2023-02-12T01:30:41;17.38;;;9.80;;
73747;SDS011;62056;52.130;5.428;2023-02-12T01:33:08;11.95;;;8.20;;
73747;SDS011;62056;52.130;5.428;2023-02-12T01:35:36;16.85;;;9.93;;
73747;SDS011;62056;52.130;5.428;2023-02-12T01:38:03;16.85;;;9.88;;
73747;SDS011;62056;52.130;5.428;2023-02-12T01:40:29;14.53;;;9.43;;
73747;SDS011;62056;52.130;5.428;2023-02-12T01:42:59;11.73;;;8.55;;
73747;SDS011;62056;52.130;5.428;2023-02-12T01:47:53;12.30;;;9.23;;
73747;SDS011;62056;52.130;5.428;2023-02-12T01:50:20;14.10;;;8.63;;
73747;SDS011;62056;52.130;5.428;2023-02-12T01:52:47;14.30;;;9.23;;
73747;SDS011;62056;52.130;5.428;2023-02-12T01:55:19;14.98;;;8.60;;
73747;SDS011;62056;52.130;5.428;2023-02-12T01:57:46;13.23;;;9.32;;
73747;SDS011;62056;52.130;5.428;2023-02-12T02:00:15;14.10;;;10.23;;
73747;SDS011;62056;52.130;5.428;2023-02-12T02:02:50;16.08;;;10.00;;
73747;SDS011;62056;52.130;5.428;2023-02-12T02:05:26;13.80;;;9.27;;
73747;SDS011;62056;52.130;5.428;2023-02-12T02:07:58;13.88;;;9.27;;
73747;SDS011;62056;52.130;5.428;2023-02-12T02:10:25;14.50;;;9.60;;
73747;SDS011;62056;52.130;5.428;2023-02-12T02:12:52;14.50;;;9.85;;
73747;SDS011;62056;52.130;5.428;2023-02-12T02:15:37;19.58;;;10.32;;
73747;SDS011;62056;52.130;5.428;2023-02-12T02:18:09;16.03;;;10.07;;
73747;SDS011;62056;52.130;5.428;2023-02-12T02:44:59;15.03;;;10.03;;
73747;SDS011;62056;52.130;5.428;2023-02-12T02:47:33;21.27;;;11.30;;
73747;SDS011;62056;52.130;5.428;2023-02-12T02:50:05;18.58;;;10.68;;
73747;SDS011;62056;52.130;5.428;2023-02-12T02:52:38;16.45;;;10.63;;
73747;SDS011;62056;52.130;5.428;2023-02-12T02:55:10;20.42;;;11.07;;
73747;SDS011;62056;52.130;5.428;2023-02-12T03:00:08;17.58;;;10.48;;
73747;SDS011;62056;52.130;5.428;2023-02-12T03:02:38;24.40;;;11.23;;
73747;SDS011;62056;52.130;5.428;2023-02-12T03:05:08;19.92;;;11.02;;
73747;SDS011;62056;52.130;5.428;2023-02-12T03:07:41;16.80;;;10.98;;
73747;SDS011;62056;52.130;5.428;2023-02-12T03:10:14;22.33;;;11.77;;
73747;SDS011;62056;52.130;5.428;2023-02-12T03:13:03;17.27;;;11.38;;
73747;SDS011;62056;52.130;5.428;2023-02-12T03:15:36;21.48;;;11.05;;
73747;SDS011;62056;52.130;5.428;2023-02-12T03:18:09;17.60;;;9.82;;
73747;SDS011;62056;52.130;5.428;2023-02-12T03:20:42;17.58;;;10.85;;
73747;SDS011;62056;52.130;5.428;2023-02-12T03:23:14;21.77;;;11.63;;
73747;SDS011;62056;52.130;5.428;2023-02-12T03:25:55;18.05;;;10.38;;
73747;SDS011;62056;52.130;5.428;2023-02-12T03:28:30;20.80;;;10.77;;
73747;SDS011;62056;52.130;5.428;2023-02-12T03:36:24;21.40;;;11.53;;
73747;SDS011;62056;52.130;5.428;2023-02-12T03:39:02;21.73;;;11.77;;
73747;SDS011;62056;52.130;5.428;2023-02-12T03:41:41;20.65;;;11.15;;
73747;SDS011;62056;52.130;5.428;2023-02-12T03:44:20;23.63;;;10.40;;
73747;SDS011;62056;52.130;5.428;2023-02-12T03:46:57;20.92;;;11.38;;
73747;SDS011;62056;52.130;5.428;2023-02-12T03:49:30;14.93;;;10.13;;
73747;SDS011;62056;52.130;5.428;2023-02-12T03:52:02;22.10;;;12.20;;
73747;SDS011;62056;52.130;5.428;2023-02-12T03:54:29;24.20;;;13.07;;
73747;SDS011;62056;52.130;5.428;2023-02-12T03:57:05;25.02;;;11.32;;
73747;SDS011;62056;52.130;5.428;2023-02-12T03:59:35;17.17;;;11.20;;
73747;SDS011;62056;52.130;5.428;2023-02-12T04:02:04;18.00;;;11.30;;
73747;SDS011;62056;52.130;5.428;2023-02-12T04:04:32;18.17;;;11.45;;
73747;SDS011;62056;52.130;5.428;2023-02-12T04:07:00;15.73;;;9.82;;
73747;SDS011;62056;52.130;5.428;2023-02-12T04:09:27;19.88;;;11.73;;
73747;SDS011;62056;52.130;5.428;2023-02-12T04:12:08;20.33;;;11.80;;
73747;SDS011;62056;52.130;5.428;2023-02-12T04:14:44;20.33;;;11.17;;
73747;SDS011;62056;52.130;5.428;2023-02-12T04:28:45;20.00;;;11.93;;
73747;SDS011;62056;52.130;5.428;2023-02-12T04:31:45;19.25;;;11.18;;
73747;SDS011;62056;52.130;5.428;2023-02-12T04:34:31;21.73;;;11.13;;
73747;SDS011;62056;52.130;5.428;2023-02-12T04:37:16;24.98;;;12.82;;
73747;SDS011;62056;52.130;5.428;2023-02-12T04:39:47;14.35;;;10.50;;
73747;SDS011;62056;52.130;5.428;2023-02-12T04:42:14;16.77;;;10.57;;
73747;SDS011;62056;52.130;5.428;2023-02-12T04:44:42;24.23;;;11.93;;
73747;SDS011;62056;52.130;5.428;2023-02-12T04:47:11;22.70;;;12.50;;
73747;SDS011;62056;52.130;5.428;2023-02-12T04:49:38;17.63;;;11.45;;
73747;SDS011;62056;52.130;5.428;2023-02-12T04:52:06;17.23;;;11.98;;
73747;SDS011;62056;52.130;5.428;2023-02-12T04:54:33;19.93;;;12.17;;
73747;SDS011;62056;52.130;5.428;2023-02-12T04:57:00;19.00;;;12.48;;
73747;SDS011;62056;52.130;5.428;2023-02-12T04:59:27;19.60;;;12.60;;
73747;SDS011;62056;52.130;5.428;2023-02-12T05:01:53;19.95;;;12.55;;
73747;SDS011;62056;52.130;5.428;2023-02-12T05:04:20;18.27;;;11.45;;
73747;SDS011;62056;52.130;5.428;2023-02-12T05:06:47;19.10;;;12.10;;
73747;SDS011;62056;52.130;5.428;2023-02-12T05:09:15;23.05;;;11.82;;
73747;SDS011;62056;52.130;5.428;2023-02-12T05:11:43;20.10;;;12.02;;
73747;SDS011;62056;52.130;5.428;2023-02-12T05:14:11;21.33;;;12.18;;
73747;SDS011;62056;52.130;5.428;2023-02-12T05:16:37;18.35;;;11.93;;
73747;SDS011;62056;52.130;5.428;2023-02-12T05:19:04;19.63;;;11.77;;
73747;SDS011;62056;52.130;5.428;2023-02-12T05:21:31;30.00;;;13.85;;
73747;SDS011;62056;52.130;5.428;2023-02-12T05:23:57;15.27;;;10.65;;
73747;SDS011;62056;52.130;5.428;2023-02-12T05:26:25;22.65;;;13.45;;
73747;SDS011;62056;52.130;5.428;2023-02-12T05:28:52;22.08;;;12.77;;
73747;SDS011;62056;52.130;5.428;2023-02-12T05:31:19;13.73;;;8.97;;
73747;SDS011;62056;52.130;5.428;2023-02-12T05:33:47;14.55;;;10.52;;
73747;SDS011;62056;52.130;5.428;2023-02-12T05:36:18;15.35;;;9.70;;
73747;SDS011;62056;52.130;5.428;2023-02-12T05:38:46;18.48;;;10.52;;
73747;SDS011;62056;52.130;5.428;2023-02-12T05:41:17;17.25;;;11.20;;
73747;SDS011;62056;52.130;5.428;2023-02-12T05:43:47;16.67;;;11.30;;
73747;SDS011;62056;52.130;5.428;2023-02-12T05:46:15;21.25;;;11.55;;
73747;SDS011;62056;52.130;5.428;2023-02-12T05:48:43;19.58;;;12.05;;
73747;SDS011;62056;52.130;5.428;2023-02-12T05:51:12;20.20;;;12.00;;
73747;SDS011;62056;52.130;5.428;2023-02-12T05:53:40;18.83;;;12.10;;
73747;SDS011;62056;52.130;5.428;2023-02-12T05:56:08;18.97;;;11.00;;
73747;SDS011;62056;52.130;5.428;2023-02-12T05:58:35;19.67;;;11.77;;
73747;SDS011;62056;52.130;5.428;2023-02-12T06:01:02;18.17;;;12.70;;
73747;SDS011;62056;52.130;5.428;2023-02-12T06:03:34;20.55;;;12.60;;
73747;SDS011;62056;52.130;5.428;2023-02-12T06:06:00;23.58;;;12.85;;
73747;SDS011;62056;52.130;5.428;2023-02-12T06:08:27;21.73;;;12.70;;
73747;SDS011;62056;52.130;5.428;2023-02-12T06:10:53;23.40;;;12.63;;
73747;SDS011;62056;52.130;5.428;2023-02-12T06:13:20;22.75;;;13.10;;
73747;SDS011;62056;52.130;5.428;2023-02-12T06:15:47;18.92;;;11.88;;
73747;SDS011;62056;52.130;5.428;2023-02-12T06:18:13;22.25;;;13.40;;
73747;SDS011;62056;52.130;5.428;2023-02-12T06:20:40;20.60;;;13.40;;
73747;SDS011;62056;52.130;5.428;2023-02-12T06:23:07;24.23;;;13.07;;
73747;SDS011;62056;52.130;5.428;2023-02-12T06:25:33;25.25;;;13.13;;
73747;SDS011;62056;52.130;5.428;2023-02-12T06:28:00;23.23;;;14.00;;
73747;SDS011;62056;52.130;5.428;2023-02-12T06:30:27;22.63;;;13.85;;
73747;SDS011;62056;52.130;5.428;2023-02-12T06:32:53;23.83;;;13.50;;
73747;SDS011;62056;52.130;5.428;2023-02-12T06:35:20;24.60;;;13.70;;
73747;SDS011;62056;52.130;5.428;2023-02-12T06:37:47;24.25;;;13.55;;
73747;SDS011;62056;52.130;5.428;2023-02-12T06:40:13;21.58;;;13.25;;
73747;SDS011;62056;52.130;5.428;2023-02-12T06:42:40;21.80;;;13.48;;
73747;SDS011;62056;52.130;5.428;2023-02-12T06:45:07;26.07;;;12.27;;
73747;SDS011;62056;52.130;5.428;2023-02-12T06:47:33;23.23;;;13.10;;
73747;SDS011;62056;52.130;5.428;2023-02-12T06:50:00;20.42;;;12.85;;
73747;SDS011;62056;52.130;5.428;2023-02-12T06:52:27;23.27;;;12.18;;
73747;SDS011;62056;52.130;5.428;2023-02-12T06:54:54;21.15;;;13.57;;
73747;SDS011;62056;52.130;5.428;2023-02-12T06:57:21;21.50;;;12.70;;
73747;SDS011;62056;52.130;5.428;2023-02-12T06:59:48;21.77;;;13.32;;
73747;SDS011;62056;52.130;5.428;2023-02-12T07:02:15;18.77;;;11.90;;
73747;SDS011;62056;52.130;5.428;2023-02-12T07:04:41;16.90;;;10.95;;
73747;SDS011;62056;52.130;5.428;2023-02-12T07:07:08;19.63;;;12.10;;
73747;SDS011;62056;52.130;5.428;2023-02-12T07:09:35;21.33;;;12.87;;
73747;SDS011;62056;52.130;5.428;2023-02-12T07:12:01;13.98;;;9.32;;
73747;SDS011;62056;52.130;5.428;2023-02-12T07:14:28;16.75;;;11.18;;
73747;SDS011;62056;52.130;5.428;2023-02-12T07:16:55;19.83;;;13.20;;
73747;SDS011;62056;52.130;5.428;2023-02-12T07:19:22;14.48;;;10.98;;
73747;SDS011;62056;52.130;5.428;2023-02-12T07:21:49;20.33;;;12.10;;
73747;SDS011;62056;52.130;5.428;2023-02-12T07:24:16;23.70;;;13.40;;
73747;SDS011;62056;52.130;5.428;2023-02-12T07:26:43;20.42;;;12.00;;
73747;SDS011;62056;52.130;5.428;2023-02-12T07:29:10;16.30;;;9.48;;
73747;SDS011;62056;52.130;5.428;2023-02-12T07:31:37;16.65;;;10.85;;
73747;SDS011;62056;52.130;5.428;2023-02-12T07:34:06;17.30;;;12.10;;
73747;SDS011;62056;52.130;5.428;2023-02-12T07:36:33;19.52;;;12.02;;
73747;SDS011;62056;52.130;5.428;2023-02-12T07:38:59;18.25;;;12.00;;
73747;SDS011;62056;52.130;5.428;2023-02-12T07:41:31;18.33;;;11.80;;
73747;SDS011;62056;52.130;5.428;2023-02-12T07:44:00;13.50;;;10.55;;
73747;SDS011;62056;52.130;5.428;2023-02-12T07:46:33;17.77;;;11.40;;
73747;SDS011;62056;52.130;5.428;2023-02-12T07:49:01;16.30;;;11.55;;
73747;SDS011;62056;52.130;5.428;2023-02-12T07:51:31;17.15;;;11.57;;
73747;SDS011;62056;52.130;5.428;2023-02-12T07:53:59;16.58;;;11.95;;
73747;SDS011;62056;52.130;5.428;2023-02-12T07:56:27;15.98;;;10.82;;
73747;SDS011;62056;52.130;5.428;2023-02-12T07:58:59;17.67;;;11.63;;
73747;SDS011;62056;52.130;5.428;2023-02-12T08:01:31;17.65;;;11.35;;
73747;SDS011;62056;52.130;5.428;2023-02-12T08:04:00;16.17;;;11.45;;
73747;SDS011;62056;52.130;5.428;2023-02-12T08:06:29;19.23;;;10.68;;
73747;SDS011;62056;52.130;5.428;2023-02-12T08:08:58;17.70;;;11.73;;
73747;SDS011;62056;52.130;5.428;2023-02-12T08:11:27;14.27;;;11.03;;
73747;SDS011;62056;52.130;5.428;2023-02-12T08:13:55;18.15;;;11.75;;
73747;SDS011;62056;52.130;5.428;2023-02-12T08:16:23;14.90;;;10.98;;
73747;SDS011;62056;52.130;5.428;2023-02-12T08:18:51;15.05;;;12.30;;
73747;SDS011;62056;52.130;5.428;2023-02-12T08:21:20;15.07;;;10.70;;
73747;SDS011;62056;52.130;5.428;2023-02-12T08:23:48;15.50;;;11.00;;
73747;SDS011;62056;52.130;5.428;2023-02-12T08:28:48;17.02;;;10.63;;
73747;SDS011;62056;52.130;5.428;2023-02-12T08:31:19;17.52;;;10.27;;
73747;SDS011;62056;52.130;5.428;2023-02-12T08:33:49;18.42;;;9.88;;
73747;SDS011;62056;52.130;5.428;2023-02-12T08:36:17;14.77;;;10.30;;
73747;SDS011;62056;52.130;5.428;2023-02-12T08:38:45;15.20;;;10.70;;
73747;SDS011;62056;52.130;5.428;2023-02-12T08:41:14;12.95;;;8.50;;
73747;SDS011;62056;52.130;5.428;2023-02-12T08:43:47;12.77;;;9.52;;
73747;SDS011;62056;52.130;5.428;2023-02-12T08:48:41;13.67;;;9.87;;
73747;SDS011;62056;52.130;5.428;2023-02-12T08:51:15;12.23;;;10.25;;
73747;SDS011;62056;52.130;5.428;2023-02-12T08:53:45;10.25;;;8.98;;
73747;SDS011;62056;52.130;5.428;2023-02-12T08:56:13;18.60;;;10.40;;
73747;SDS011;62056;52.130;5.428;2023-02-12T08:58:42;12.38;;;9.48;;
73747;SDS011;62056;52.130;5.428;2023-02-12T09:01:10;12.07;;;10.20;;
73747;SDS011;62056;52.130;5.428;2023-02-12T09:03:39;12.32;;;10.00;;
73747;SDS011;62056;52.130;5.428;2023-02-12T09:06:05;16.00;;;10.02;;
73747;SDS011;62056;52.130;5.428;2023-02-12T09:08:35;14.88;;;10.55;;
73747;SDS011;62056;52.130;5.428;2023-02-12T09:11:04;11.45;;;9.45;;
73747;SDS011;62056;52.130;5.428;2023-02-12T09:13:33;11.20;;;9.77;;
73747;SDS011;62056;52.130;5.428;2023-02-12T09:16:01;14.50;;;11.15;;
73747;SDS011;62056;52.130;5.428;2023-02-12T09:18:29;14.50;;;11.02;;
73747;SDS011;62056;52.130;5.428;2023-02-12T09:21:02;11.82;;;9.10;;
73747;SDS011;62056;52.130;5.428;2023-02-12T09:23:33;13.68;;;10.93;;
73747;SDS011;62056;52.130;5.428;2023-02-12T09:26:06;13.43;;;10.07;;
73747;SDS011;62056;52.130;5.428;2023-02-12T09:28:35;16.92;;;10.70;;
73747;SDS011;62056;52.130;5.428;2023-02-12T09:31:06;13.77;;;10.18;;
73747;SDS011;62056;52.130;5.428;2023-02-12T09:33:33;15.48;;;11.02;;
73747;SDS011;62056;52.130;5.428;2023-02-12T09:36:01;17.83;;;11.32;;
73747;SDS011;62056;52.130;5.428;2023-02-12T09:38:30;15.37;;;10.97;;
73747;SDS011;62056;52.130;5.428;2023-02-12T09:46:32;14.80;;;11.57;;
73747;SDS011;62056;52.130;5.428;2023-02-12T09:51:35;17.83;;;12.33;;
73747;SDS011;62056;52.130;5.428;2023-02-12T09:54:06;15.93;;;11.73;;
73747;SDS011;62056;52.130;5.428;2023-02-12T09:56:43;14.52;;;11.15;;
73747;SDS011;62056;52.130;5.428;2023-02-12T09:59:29;17.83;;;12.00;;
73747;SDS011;62056;52.130;5.428;2023-02-12T10:01:58;20.85;;;13.10;;
73747;SDS011;62056;52.130;5.428;2023-02-12T10:04:25;17.53;;;12.53;;
73747;SDS011;62056;52.130;5.428;2023-02-12T10:06:58;13.10;;;11.20;;
73747;SDS011;62056;52.130;5.428;2023-02-12T10:09:30;15.75;;;11.75;;
73747;SDS011;62056;52.130;5.428;2023-02-12T10:12:17;20.23;;;13.43;;
73747;SDS011;62056;52.130;5.428;2023-02-12T10:22:54;25.20;;;14.55;;
73747;SDS011;62056;52.130;5.428;2023-02-12T10:25:49;16.48;;;13.25;;
73747;SDS011;62056;52.130;5.428;2023-02-12T10:28:24;22.35;;;13.75;;
73747;SDS011;62056;52.130;5.428;2023-02-12T10:30:59;18.77;;;13.13;;
73747;SDS011;62056;52.130;5.428;2023-02-12T10:33:31;17.55;;;13.18;;
73747;SDS011;62056;52.130;5.428;2023-02-12T10:38:51;18.85;;;12.82;;
73747;SDS011;62056;52.130;5.428;2023-02-12T10:41:22;16.15;;;12.13;;
73747;SDS011;62056;52.130;5.428;2023-02-12T10:43:52;17.03;;;12.30;;
73747;SDS011;62056;52.130;5.428;2023-02-12T10:46:19;15.10;;;11.85;;
73747;SDS011;62056;52.130;5.428;2023-02-12T10:48:47;17.88;;;12.38;;
73747;SDS011;62056;52.130;5.428;2023-02-12T10:51:33;15.50;;;12.45;;
73747;SDS011;62056;52.130;5.428;2023-02-12T10:56:59;16.17;;;12.77;;
73747;SDS011;62056;52.130;5.428;2023-02-12T10:59:33;17.17;;;12.35;;
73747;SDS011;62056;52.130;5.428;2023-02-12T11:02:01;16.77;;;13.13;;
73747;SDS011;62056;52.130;5.428;2023-02-12T11:04:29;18.15;;;12.43;;
73747;SDS011;62056;52.130;5.428;2023-02-12T11:07:00;13.63;;;11.65;;
73747;SDS011;62056;52.130;5.428;2023-02-12T11:09:34;20.63;;;12.27;;
73747;SDS011;62056;52.130;5.428;2023-02-12T11:12:02;21.70;;;13.10;;
73747;SDS011;62056;52.130;5.428;2023-02-12T11:14:29;18.33;;;13.23;;
73747;SDS011;62056;52.130;5.428;2023-02-12T11:16:57;17.20;;;12.10;;
73747;SDS011;62056;52.130;5.428;2023-02-12T11:19:27;18.73;;;12.35;;
73747;SDS011;62056;52.130;5.428;2023-02-12T11:22:05;15.40;;;12.17;;
73747;SDS011;62056;52.130;5.428;2023-02-12T11:24:45;17.00;;;12.93;;
73747;SDS011;62056;52.130;5.428;2023-02-12T11:29:42;16.10;;;12.63;;
73747;SDS011;62056;52.130;5.428;2023-02-12T11:32:16;19.05;;;12.48;;
73747;SDS011;62056;52.130;5.428;2023-02-12T11:35:00;19.17;;;13.40;;
73747;SDS011;62056;52.130;5.428;2023-02-12T11:37:32;16.52;;;12.32;;
73747;SDS011;62056;52.130;5.428;2023-02-12T11:40:02;17.40;;;12.13;;
73747;SDS011;62056;52.130;5.428;2023-02-12T11:42:29;15.80;;;12.20;;
73747;SDS011;62056;52.130;5.428;2023-02-12T11:45:02;16.10;;;11.95;;
73747;SDS011;62056;52.130;5.428;2023-02-12T11:47:31;19.87;;;13.57;;
73747;SDS011;62056;52.130;5.428;2023-02-12T11:52:41;15.73;;;11.05;;
73747;SDS011;62056;52.130;5.428;2023-02-12T11:55:19;15.35;;;10.68;;
73747;SDS011;62056;52.130;5.428;2023-02-12T11:57:54;14.63;;;11.73;;
73747;SDS011;62056;52.130;5.428;2023-02-12T12:00:29;14.73;;;11.73;;
73747;SDS011;62056;52.130;5.428;2023-02-12T12:03:20;8.38;;;7.53;;
73747;SDS011;62056;52.130;5.428;2023-02-12T12:11:36;14.57;;;11.20;;
73747;SDS011;62056;52.130;5.428;2023-02-12T12:17:02;13.95;;;10.38;;
73747;SDS011;62056;52.130;5.428;2023-02-12T12:19:58;13.65;;;10.05;;
73747;SDS011;62056;52.130;5.428;2023-02-12T12:22:35;11.95;;;9.65;;
73747;SDS011;62056;52.130;5.428;2023-02-12T12:25:22;17.85;;;11.23;;
73747;SDS011;62056;52.130;5.428;2023-02-12T12:27:58;10.70;;;8.07;;
73747;SDS011;62056;52.130;5.428;2023-02-12T12:55:55;16.37;;;9.90;;
73747;SDS011;62056;52.130;5.428;2023-02-12T13:01:01;13.40;;;10.25;;
73747;SDS011;62056;52.130;5.428;2023-02-12T13:04:12;14.27;;;10.15;;
73747;SDS011;62056;52.130;5.428;2023-02-12T13:15:08;10.93;;;8.80;;
73747;SDS011;62056;52.130;5.428;2023-02-12T13:22:44;9.10;;;7.80;;
73747;SDS011;62056;52.130;5.428;2023-02-12T13:25:25;8.13;;;6.38;;
73747;SDS011;62056;52.130;5.428;2023-02-12T13:27:58;11.57;;;9.10;;
73747;SDS011;62056;52.130;5.428;2023-02-12T13:30:32;10.57;;;8.38;;
73747;SDS011;62056;52.130;5.428;2023-02-12T13:33:11;10.35;;;8.43;;
73747;SDS011;62056;52.130;5.428;2023-02-12T13:35:50;9.17;;;8.20;;
73747;SDS011;62056;52.130;5.428;2023-02-12T13:38:26;11.77;;;7.90;;
73747;SDS011;62056;52.130;5.428;2023-02-12T13:41:06;10.45;;;9.25;;
73747;SDS011;62056;52.130;5.428;2023-02-12T13:56:45;8.85;;;7.95;;
73747;SDS011;62056;52.130;5.428;2023-02-12T14:04:42;10.15;;;7.57;;
73747;SDS011;62056;52.130;5.428;2023-02-12T14:07:14;15.45;;;9.02;;
73747;SDS011;62056;52.130;5.428;2023-02-12T14:09:43;10.80;;;7.38;;
73747;SDS011;62056;52.130;5.428;2023-02-12T14:20:19;9.40;;;8.40;;
73747;SDS011;62056;52.130;5.428;2023-02-12T14:38:02;11.82;;;5.80;;
73747;SDS011;62056;52.130;5.428;2023-02-12T14:40:49;10.70;;;7.40;;
73747;SDS011;62056;52.130;5.428;2023-02-12T14:43:23;11.27;;;7.93;;
73747;SDS011;62056;52.130;5.428;2023-02-12T14:45:53;6.30;;;5.03;;
73747;SDS011;62056;52.130;5.428;2023-02-12T14:48:40;9.00;;;6.22;;
73747;SDS011;62056;52.130;5.428;2023-02-12T14:54:15;8.77;;;7.67;;
73747;SDS011;62056;52.130;5.428;2023-02-12T14:56:50;6.18;;;5.57;;
73747;SDS011;62056;52.130;5.428;2023-02-12T14:59:22;7.78;;;7.07;;
73747;SDS011;62056;52.130;5.428;2023-02-12T15:01:51;9.80;;;6.68;;
73747;SDS011;62056;52.130;5.428;2023-02-12T15:04:26;10.48;;;8.00;;
73747;SDS011;62056;52.130;5.428;2023-02-12T15:06:56;9.83;;;7.77;;
73747;SDS011;62056;52.130;5.428;2023-02-12T15:09:46;11.15;;;8.20;;
73747;SDS011;62056;52.130;5.428;2023-02-12T15:12:21;11.05;;;8.10;;
73747;SDS011;62056;52.130;5.428;2023-02-12T15:17:58;9.82;;;7.70;;
73747;SDS011;62056;52.130;5.428;2023-02-12T15:20:29;9.47;;;8.30;;
73747;SDS011;62056;52.130;5.428;2023-02-12T15:23:23;12.15;;;8.32;;
73747;SDS011;62056;52.130;5.428;2023-02-12T15:26:04;7.63;;;6.47;;
73747;SDS011;62056;52.130;5.428;2023-02-12T15:28:35;13.77;;;7.60;;
73747;SDS011;62056;52.130;5.428;2023-02-12T15:31:04;11.07;;;8.55;;
73747;SDS011;62056;52.130;5.428;2023-02-12T15:33:38;9.17;;;7.97;;
73747;SDS011;62056;52.130;5.428;2023-02-12T15:36:07;12.02;;;9.07;;
73747;SDS011;62056;52.130;5.428;2023-02-12T15:38:39;6.63;;;5.80;;
73747;SDS011;62056;52.130;5.428;2023-02-12T15:41:07;10.30;;;7.97;;
73747;SDS011;62056;52.130;5.428;2023-02-12T15:43:39;10.55;;;7.32;;
73747;SDS011;62056;52.130;5.428;2023-02-12T15:46:13;8.53;;;7.70;;
73747;SDS011;62056;52.130;5.428;2023-02-12T15:48:42;10.65;;;7.65;;
73747;SDS011;62056;52.130;5.428;2023-02-12T15:51:17;9.60;;;8.40;;
73747;SDS011;62056;52.130;5.428;2023-02-12T15:53:50;10.60;;;7.72;;
73747;SDS011;62056;52.130;5.428;2023-02-12T15:56:18;5.07;;;4.35;;
73747;SDS011;62056;52.130;5.428;2023-02-12T15:58:48;7.47;;;6.10;;
73747;SDS011;62056;52.130;5.428;2023-02-12T16:01:18;7.88;;;6.88;;
73747;SDS011;62056;52.130;5.428;2023-02-12T16:03:51;7.50;;;6.75;;
73747;SDS011;62056;52.130;5.428;2023-02-12T16:06:20;8.65;;;6.53;;
73747;SDS011;62056;52.130;5.428;2023-02-12T16:08:56;8.18;;;5.68;;
73747;SDS011;62056;52.130;5.428;2023-02-12T16:11:27;6.13;;;5.43;;
73747;SDS011;62056;52.130;5.428;2023-02-12T16:13:57;8.55;;;6.68;;
73747;SDS011;62056;52.130;5.428;2023-02-12T16:16:27;8.52;;;7.72;;
73747;SDS011;62056;52.130;5.428;2023-02-12T16:19:02;9.18;;;6.90;;
73747;SDS011;62056;52.130;5.428;2023-02-12T16:21:33;8.70;;;7.22;;
73747;SDS011;62056;52.130;5.428;2023-02-12T16:24:03;8.00;;;7.03;;
73747;SDS011;62056;52.130;5.428;2023-02-12T16:26:44;8.23;;;7.25;;
73747;SDS011;62056;52.130;5.428;2023-02-12T16:29:14;10.32;;;7.47;;
73747;SDS011;62056;52.130;5.428;2023-02-12T16:31:54;9.23;;;7.47;;
73747;SDS011;62056;52.130;5.428;2023-02-12T16:34:31;11.48;;;7.63;;
73747;SDS011;62056;52.130;5.428;2023-02-12T16:37:02;10.67;;;8.17;;
73747;SDS011;62056;52.130;5.428;2023-02-12T16:42:23;10.50;;;7.47;;
73747;SDS011;62056;52.130;5.428;2023-02-12T16:44:54;14.02;;;8.77;;
73747;SDS011;62056;52.130;5.428;2023-02-12T16:47:22;10.57;;;8.20;;
73747;SDS011;62056;52.130;5.428;2023-02-12T16:49:51;11.60;;;9.00;;
73747;SDS011;62056;52.130;5.428;2023-02-12T16:52:33;11.35;;;8.45;;
73747;SDS011;62056;52.130;5.428;2023-02-12T16:55:03;14.35;;;8.88;;
73747;SDS011;62056;52.130;5.428;2023-02-12T16:57:32;14.25;;;9.35;;
73747;SDS011;62056;52.130;5.428;2023-02-12T16:59:59;10.82;;;9.20;;
73747;SDS011;62056;52.130;5.428;2023-02-12T17:02:26;10.83;;;8.43;;
73747;SDS011;62056;52.130;5.428;2023-02-12T17:04:52;11.95;;;8.35;;
73747;SDS011;62056;52.130;5.428;2023-02-12T17:07:23;14.43;;;8.52;;
73747;SDS011;62056;52.130;5.428;2023-02-12T17:09:53;12.45;;;8.18;;
73747;SDS011;62056;52.130;5.428;2023-02-12T17:12:20;14.18;;;8.70;;
73747;SDS011;62056;52.130;5.428;2023-02-12T17:14:46;12.93;;;9.47;;
73747;SDS011;62056;52.130;5.428;2023-02-12T17:17:13;13.38;;;9.25;;
73747;SDS011;62056;52.130;5.428;2023-02-12T17:19:40;12.25;;;9.23;;
73747;SDS011;62056;52.130;5.428;2023-02-12T17:22:07;9.32;;;7.82;;
73747;SDS011;62056;52.130;5.428;2023-02-12T17:24:43;13.10;;;8.32;;
73747;SDS011;62056;52.130;5.428;2023-02-12T17:27:16;12.40;;;8.63;;
73747;SDS011;62056;52.130;5.428;2023-02-12T17:29:44;12.43;;;9.48;;
73747;SDS011;62056;52.130;5.428;2023-02-12T17:32:10;16.05;;;10.23;;
73747;SDS011;62056;52.130;5.428;2023-02-12T17:34:38;12.18;;;9.88;;
73747;SDS011;62056;52.130;5.428;2023-02-12T17:37:14;14.73;;;10.13;;
73747;SDS011;62056;52.130;5.428;2023-02-12T17:39:42;16.50;;;10.67;;
73747;SDS011;62056;52.130;5.428;2023-02-12T17:42:08;14.90;;;9.75;;
73747;SDS011;62056;52.130;5.428;2023-02-12T17:44:35;15.07;;;9.23;;
73747;SDS011;62056;52.130;5.428;2023-02-12T17:47:01;13.45;;;10.05;;
73747;SDS011;62056;52.130;5.428;2023-02-12T17:49:29;12.95;;;9.52;;